sensor_id;sensor_type;location;lat;lon;timestamp;temperature;humidity
2174;DHT22;1093;51.424;11.764;2023-04-28T00:00:48;6.10;1.40
2174;DHT22;1093;51.424;11.764;2023-04-28T00:03:15;6.10;1.40
2174;DHT22;1093;51.424;11.764;2023-04-28T00:05:42;6.00;1.40
2174;DHT22;1093;51.424;11.764;2023-04-28T00:08:09;6.00;1.40
2174;DHT22;1093;51.424;11.764;2023-04-28T00:10:37;6.00;1.40
2174;DHT22;1093;51.424;11.764;2023-04-28T00:13:03;6.00;1.40
2174;DHT22;1093;51.424;11.764;2023-04-28T00:15:30;6.00;1.40
2174;DHT22;1093;51.424;11.764;2023-04-28T00:17:57;6.00;1.40
2174;DHT22;1093;51.424;11.764;2023-04-28T00:20:24;6.00;1.40
2174;DHT22;1093;51.424;11.764;2023-04-28T00:22:50;6.00;1.40
2174;DHT22;1093;51.424;11.764;2023-04-28T00:25:17;5.90;1.40
2174;DHT22;1093;51.424;11.764;2023-04-28T00:27:45;5.90;1.40
2174;DHT22;1093;51.424;11.764;2023-04-28T00:30:12;5.90;1.40
2174;DHT22;1093;51.424;11.764;2023-04-28T00:32:39;5.90;1.40
2174;DHT22;1093;51.424;11.764;2023-04-28T00:35:06;5.90;1.40
2174;DHT22;1093;51.424;11.764;2023-04-28T00:37:35;5.80;1.40
2174;DHT22;1093;51.424;11.764;2023-04-28T00:40:02;5.80;1.40
2174;DHT22;1093;51.424;11.764;2023-04-28T00:42:29;5.80;1.40
2174;DHT22;1093;51.424;11.764;2023-04-28T00:44:57;5.80;1.40
2174;DHT22;1093;51.424;11.764;2023-04-28T00:47:30;5.80;1.40
2174;DHT22;1093;51.424;11.764;2023-04-28T00:49:57;5.80;1.40
2174;DHT22;1093;51.424;11.764;2023-04-28T00:52:24;5.80;1.40
2174;DHT22;1093;51.424;11.764;2023-04-28T00:54:51;5.80;1.40
2174;DHT22;1093;51.424;11.764;2023-04-28T00:57:18;5.70;1.40
2174;DHT22;1093;51.424;11.764;2023-04-28T00:59:45;5.70;1.40
2174;DHT22;1093;51.424;11.764;2023-04-28T01:02:13;5.70;1.40
2174;DHT22;1093;51.424;11.764;2023-04-28T01:04:43;5.70;1.40
2174;DHT22;1093;51.424;11.764;2023-04-28T01:07:10;5.70;1.40
2174;DHT22;1093;51.424;11.764;2023-04-28T01:09:37;5.70;1.40
2174;DHT22;1093;51.424;11.764;2023-04-28T01:12:04;5.70;1.40
2174;DHT22;1093;51.424;11.764;2023-04-28T01:14:31;5.70;1.40
2174;DHT22;1093;51.424;11.764;2023-04-28T01:16:58;5.70;1.40
2174;DHT22;1093;51.424;11.764;2023-04-28T01:19:26;5.70;1.40
2174;DHT22;1093;51.424;11.764;2023-04-28T01:21:54;5.60;1.40
2174;DHT22;1093;51.424;11.764;2023-04-28T01:24:22;5.60;1.40
2174;DHT22;1093;51.424;11.764;2023-04-28T01:26:49;5.60;1.40
2174;DHT22;1093;51.424;11.764;2023-04-28T01:29:15;5.60;1.40
2174;DHT22;1093;51.424;11.764;2023-04-28T01:31:42;5.60;1.40
2174;DHT22;1093;51.424;11.764;2023-04-28T01:34:09;5.60;1.40
2174;DHT22;1093;51.424;11.764;2023-04-28T01:36:36;5.60;1.40
2174;DHT22;1093;51.424;11.764;2023-04-28T01:39:02;5.50;1.40
2174;DHT22;1093;51.424;11.764;2023-04-28T01:41:31;5.50;1.40
2174;DHT22;1093;51.424;11.764;2023-04-28T01:43:58;5.50;1.40
2174;DHT22;1093;51.424;11.764;2023-04-28T01:46:25;5.50;1.40
2174;DHT22;1093;51.424;11.764;2023-04-28T01:48:52;5.50;1.40
2174;DHT22;1093;51.424;11.764;2023-04-28T01:51:19;5.50;1.40
2174;DHT22;1093;51.424;11.764;2023-04-28T01:53:45;5.50;1.40
2174;DHT22;1093;51.424;11.764;2023-04-28T01:56:12;5.50;1.40
2174;DHT22;1093;51.424;11.764;2023-04-28T01:58:40;5.50;1.40
2174;DHT22;1093;51.424;11.764;2023-04-28T02:01:07;5.50;1.40
2174;DHT22;1093;51.424;11.764;2023-04-28T02:03:33;5.50;1.40
2174;DHT22;1093;51.424;11.764;2023-04-28T02:06:00;5.50;1.40
2174;DHT22;1093;51.424;11.764;2023-04-28T02:08:27;5.50;1.40
2174;DHT22;1093;51.424;11.764;2023-04-28T02:10:53;5.40;1.40
2174;DHT22;1093;51.424;11.764;2023-04-28T02:13:21;5.40;1.40
2174;DHT22;1093;51.424;11.764;2023-04-28T02:15:49;5.50;1.40
2174;DHT22;1093;51.424;11.764;2023-04-28T02:18:16;5.50;1.40
2174;DHT22;1093;51.424;11.764;2023-04-28T02:20:42;5.50;1.40
2174;DHT22;1093;51.424;11.764;2023-04-28T02:23:09;5.50;1.40
2174;DHT22;1093;51.424;11.764;2023-04-28T02:25:36;5.50;1.40
2174;DHT22;1093;51.424;11.764;2023-04-28T02:28:03;5.50;1.40
2174;DHT22;1093;51.424;11.764;2023-04-28T02:30:29;5.50;1.40
2174;DHT22;1093;51.424;11.764;2023-04-28T02:32:57;5.50;1.40
2174;DHT22;1093;51.424;11.764;2023-04-28T02:35:24;5.50;1.40
2174;DHT22;1093;51.424;11.764;2023-04-28T02:37:51;5.50;1.40
2174;DHT22;1093;51.424;11.764;2023-04-28T02:40:18;5.50;1.40
2174;DHT22;1093;51.424;11.764;2023-04-28T02:42:45;5.50;1.40
2174;DHT22;1093;51.424;11.764;2023-04-28T02:45:11;5.50;1.40
2174;DHT22;1093;51.424;11.764;2023-04-28T02:47:38;5.50;1.40
2174;DHT22;1093;51.424;11.764;2023-04-28T02:50:08;5.50;1.40
2174;DHT22;1093;51.424;11.764;2023-04-28T02:52:34;5.40;1.40
2174;DHT22;1093;51.424;11.764;2023-04-28T02:55:01;5.40;1.40
2174;DHT22;1093;51.424;11.764;2023-04-28T02:57:29;5.40;1.40
2174;DHT22;1093;51.424;11.764;2023-04-28T02:59:56;5.40;1.40
2174;DHT22;1093;51.424;11.764;2023-04-28T03:02:23;5.40;1.40
2174;DHT22;1093;51.424;11.764;2023-04-28T03:04:50;5.40;1.40
2174;DHT22;1093;51.424;11.764;2023-04-28T03:07:18;5.40;1.40
2174;DHT22;1093;51.424;11.764;2023-04-28T03:09:44;5.40;1.40
2174;DHT22;1093;51.424;11.764;2023-04-28T03:12:12;5.40;1.40
2174;DHT22;1093;51.424;11.764;2023-04-28T03:14:39;5.40;1.40
2174;DHT22;1093;51.424;11.764;2023-04-28T03:17:06;5.30;1.40
2174;DHT22;1093;51.424;11.764;2023-04-28T03:19:33;5.30;1.40
2174;DHT22;1093;51.424;11.764;2023-04-28T03:21:59;5.30;1.40
2174;DHT22;1093;51.424;11.764;2023-04-28T03:24:27;5.30;1.40
2174;DHT22;1093;51.424;11.764;2023-04-28T03:26:54;5.30;1.40
2174;DHT22;1093;51.424;11.764;2023-04-28T03:29:21;5.30;1.40
2174;DHT22;1093;51.424;11.764;2023-04-28T03:31:48;5.30;1.40
2174;DHT22;1093;51.424;11.764;2023-04-28T03:34:16;5.30;1.40
2174;DHT22;1093;51.424;11.764;2023-04-28T03:36:42;5.30;1.40
2174;DHT22;1093;51.424;11.764;2023-04-28T03:39:09;5.30;1.40
2174;DHT22;1093;51.424;11.764;2023-04-28T03:41:37;5.20;1.40
2174;DHT22;1093;51.424;11.764;2023-04-28T03:44:04;5.20;1.40
2174;DHT22;1093;51.424;11.764;2023-04-28T03:46:31;5.20;1.40
2174;DHT22;1093;51.424;11.764;2023-04-28T03:48:59;5.20;1.40
2174;DHT22;1093;51.424;11.764;2023-04-28T03:51:26;5.20;1.40
2174;DHT22;1093;51.424;11.764;2023-04-28T03:53:53;5.10;1.40
2174;DHT22;1093;51.424;11.764;2023-04-28T03:56:20;5.20;1.40
2174;DHT22;1093;51.424;11.764;2023-04-28T03:58:48;5.10;1.40
2174;DHT22;1093;51.424;11.764;2023-04-28T04:01:14;5.10;1.40
2174;DHT22;1093;51.424;11.764;2023-04-28T04:03:41;5.10;1.40
2174;DHT22;1093;51.424;11.764;2023-04-28T04:06:08;5.10;1.40
2174;DHT22;1093;51.424;11.764;2023-04-28T04:08:35;5.10;1.40
2174;DHT22;1093;51.424;11.764;2023-04-28T04:11:02;5.10;1.40
2174;DHT22;1093;51.424;11.764;2023-04-28T04:13:28;5.10;1.40
2174;DHT22;1093;51.424;11.764;2023-04-28T04:15:56;5.10;1.40
2174;DHT22;1093;51.424;11.764;2023-04-28T04:18:25;5.10;1.40
2174;DHT22;1093;51.424;11.764;2023-04-28T04:20:52;5.10;1.40
2174;DHT22;1093;51.424;11.764;2023-04-28T04:23:20;5.10;1.40
2174;DHT22;1093;51.424;11.764;2023-04-28T04:25:47;5.10;1.40
2174;DHT22;1093;51.424;11.764;2023-04-28T04:28:14;5.10;1.40
2174;DHT22;1093;51.424;11.764;2023-04-28T04:30:41;5.10;1.40
2174;DHT22;1093;51.424;11.764;2023-04-28T04:33:09;5.10;1.40
2174;DHT22;1093;51.424;11.764;2023-04-28T04:35:35;5.10;1.40
2174;DHT22;1093;51.424;11.764;2023-04-28T04:38:02;5.10;1.40
2174;DHT22;1093;51.424;11.764;2023-04-28T04:40:29;5.10;1.40
2174;DHT22;1093;51.424;11.764;2023-04-28T04:42:55;5.10;1.40
2174;DHT22;1093;51.424;11.764;2023-04-28T04:45:22;5.10;1.40
2174;DHT22;1093;51.424;11.764;2023-04-28T04:47:49;5.10;1.40
2174;DHT22;1093;51.424;11.764;2023-04-28T04:50:17;5.20;1.40
2174;DHT22;1093;51.424;11.764;2023-04-28T04:52:44;5.20;1.40
2174;DHT22;1093;51.424;11.764;2023-04-28T04:55:10;5.20;1.40
2174;DHT22;1093;51.424;11.764;2023-04-28T04:57:37;5.30;1.40
2174;DHT22;1093;51.424;11.764;2023-04-28T05:00:05;5.30;1.40
2174;DHT22;1093;51.424;11.764;2023-04-28T05:02:31;5.30;1.40
2174;DHT22;1093;51.424;11.764;2023-04-28T05:04:58;5.40;1.40
2174;DHT22;1093;51.424;11.764;2023-04-28T05:07:26;5.50;1.40
2174;DHT22;1093;51.424;11.764;2023-04-28T05:09:53;5.60;1.40
2174;DHT22;1093;51.424;11.764;2023-04-28T05:12:19;5.60;1.40
2174;DHT22;1093;51.424;11.764;2023-04-28T05:14:46;5.60;1.40
2174;DHT22;1093;51.424;11.764;2023-04-28T05:17:13;5.70;1.40
2174;DHT22;1093;51.424;11.764;2023-04-28T05:19:40;5.80;1.40
2174;DHT22;1093;51.424;11.764;2023-04-28T05:22:06;5.80;1.40
2174;DHT22;1093;51.424;11.764;2023-04-28T05:24:34;5.90;1.40
2174;DHT22;1093;51.424;11.764;2023-04-28T05:27:01;5.90;1.40
2174;DHT22;1093;51.424;11.764;2023-04-28T05:29:28;6.00;1.40
2174;DHT22;1093;51.424;11.764;2023-04-28T05:31:55;6.00;1.40
2174;DHT22;1093;51.424;11.764;2023-04-28T05:34:22;6.10;1.40
2174;DHT22;1093;51.424;11.764;2023-04-28T05:36:48;6.20;1.40
2174;DHT22;1093;51.424;11.764;2023-04-28T05:39:15;6.30;1.40
2174;DHT22;1093;51.424;11.764;2023-04-28T05:41:43;6.30;1.40
2174;DHT22;1093;51.424;11.764;2023-04-28T05:44:10;6.40;1.40
2174;DHT22;1093;51.424;11.764;2023-04-28T05:46:39;6.50;1.40
2174;DHT22;1093;51.424;11.764;2023-04-28T05:49:06;6.60;1.40
2174;DHT22;1093;51.424;11.764;2023-04-28T05:51:32;6.70;1.40
2174;DHT22;1093;51.424;11.764;2023-04-28T05:53:59;6.80;1.40
2174;DHT22;1093;51.424;11.764;2023-04-28T05:56:26;6.80;1.40
2174;DHT22;1093;51.424;11.764;2023-04-28T05:58:54;7.00;1.40
2174;DHT22;1093;51.424;11.764;2023-04-28T06:01:23;7.00;1.40
2174;DHT22;1093;51.424;11.764;2023-04-28T06:03:49;7.10;1.40
2174;DHT22;1093;51.424;11.764;2023-04-28T06:06:18;7.20;1.40
2174;DHT22;1093;51.424;11.764;2023-04-28T06:08:44;7.30;1.40
2174;DHT22;1093;51.424;11.764;2023-04-28T06:11:12;7.30;1.40
2174;DHT22;1093;51.424;11.764;2023-04-28T06:13:40;7.40;1.40
2174;DHT22;1093;51.424;11.764;2023-04-28T06:16:08;7.50;1.40
2174;DHT22;1093;51.424;11.764;2023-04-28T06:18:34;7.60;1.40
2174;DHT22;1093;51.424;11.764;2023-04-28T06:21:01;7.70;1.40
2174;DHT22;1093;51.424;11.764;2023-04-28T06:23:28;7.70;1.40
2174;DHT22;1093;51.424;11.764;2023-04-28T06:25:55;7.70;1.40
2174;DHT22;1093;51.424;11.764;2023-04-28T06:28:22;7.80;1.40
2174;DHT22;1093;51.424;11.764;2023-04-28T06:30:48;7.90;1.40
2174;DHT22;1093;51.424;11.764;2023-04-28T06:33:16;8.00;1.40
2174;DHT22;1093;51.424;11.764;2023-04-28T06:35:43;8.10;1.40
2174;DHT22;1093;51.424;11.764;2023-04-28T06:38:10;8.20;1.40
2174;DHT22;1093;51.424;11.764;2023-04-28T06:40:36;8.20;1.40
2174;DHT22;1093;51.424;11.764;2023-04-28T06:43:05;8.30;1.40
2174;DHT22;1093;51.424;11.764;2023-04-28T06:45:31;8.40;1.40
2174;DHT22;1093;51.424;11.764;2023-04-28T06:47:58;8.40;1.40
2174;DHT22;1093;51.424;11.764;2023-04-28T06:50:26;8.50;1.40
2174;DHT22;1093;51.424;11.764;2023-04-28T06:52:53;8.60;1.40
2174;DHT22;1093;51.424;11.764;2023-04-28T06:55:20;8.70;1.40
2174;DHT22;1093;51.424;11.764;2023-04-28T06:57:46;8.70;1.40
2174;DHT22;1093;51.424;11.764;2023-04-28T07:00:14;8.80;1.40
2174;DHT22;1093;51.424;11.764;2023-04-28T07:02:40;8.80;1.40
2174;DHT22;1093;51.424;11.764;2023-04-28T07:05:07;8.90;1.40
2174;DHT22;1093;51.424;11.764;2023-04-28T07:07:35;9.00;1.40
2174;DHT22;1093;51.424;11.764;2023-04-28T07:10:04;9.10;1.40
2174;DHT22;1093;51.424;11.764;2023-04-28T07:12:31;9.10;1.40
2174;DHT22;1093;51.424;11.764;2023-04-28T07:14:57;9.20;1.40
2174;DHT22;1093;51.424;11.764;2023-04-28T07:17:24;9.20;1.40
2174;DHT22;1093;51.424;11.764;2023-04-28T07:19:51;9.30;1.40
2174;DHT22;1093;51.424;11.764;2023-04-28T07:22:17;9.30;1.40
2174;DHT22;1093;51.424;11.764;2023-04-28T07:24:45;9.40;1.40
2174;DHT22;1093;51.424;11.764;2023-04-28T07:27:12;9.50;1.40
2174;DHT22;1093;51.424;11.764;2023-04-28T07:29:39;9.50;1.40
2174;DHT22;1093;51.424;11.764;2023-04-28T07:32:05;9.60;1.40
2174;DHT22;1093;51.424;11.764;2023-04-28T07:34:34;9.60;1.40
2174;DHT22;1093;51.424;11.764;2023-04-28T07:37:02;9.70;1.40
2174;DHT22;1093;51.424;11.764;2023-04-28T07:39:30;9.80;1.40
2174;DHT22;1093;51.424;11.764;2023-04-28T07:41:58;9.80;1.40
2174;DHT22;1093;51.424;11.764;2023-04-28T07:44:25;9.90;1.40
2174;DHT22;1093;51.424;11.764;2023-04-28T07:46:52;10.00;1.40
2174;DHT22;1093;51.424;11.764;2023-04-28T07:49:19;10.10;1.40
2174;DHT22;1093;51.424;11.764;2023-04-28T07:51:46;10.10;1.40
2174;DHT22;1093;51.424;11.764;2023-04-28T07:54:14;10.20;1.40
2174;DHT22;1093;51.424;11.764;2023-04-28T07:56:43;10.30;1.40
2174;DHT22;1093;51.424;11.764;2023-04-28T07:59:11;10.40;1.40
2174;DHT22;1093;51.424;11.764;2023-04-28T08:01:37;10.40;1.40
2174;DHT22;1093;51.424;11.764;2023-04-28T08:04:04;10.40;1.40
2174;DHT22;1093;51.424;11.764;2023-04-28T08:06:31;10.50;1.40
2174;DHT22;1093;51.424;11.764;2023-04-28T08:08:59;10.60;1.40
2174;DHT22;1093;51.424;11.764;2023-04-28T08:11:26;10.60;1.40
2174;DHT22;1093;51.424;11.764;2023-04-28T08:13:53;10.70;1.40
2174;DHT22;1093;51.424;11.764;2023-04-28T08:16:27;10.80;1.40
2174;DHT22;1093;51.424;11.764;2023-04-28T08:18:53;10.80;1.40
2174;DHT22;1093;51.424;11.764;2023-04-28T08:21:20;11.00;1.40
2174;DHT22;1093;51.424;11.764;2023-04-28T08:23:47;11.00;1.40
2174;DHT22;1093;51.424;11.764;2023-04-28T08:26:15;11.00;1.40
2174;DHT22;1093;51.424;11.764;2023-04-28T08:28:42;11.10;1.40
2174;DHT22;1093;51.424;11.764;2023-04-28T08:31:09;11.20;1.40
2174;DHT22;1093;51.424;11.764;2023-04-28T08:33:38;11.20;1.40
2174;DHT22;1093;51.424;11.764;2023-04-28T08:36:08;11.20;1.40
2174;DHT22;1093;51.424;11.764;2023-04-28T08:38:36;11.20;1.40
2174;DHT22;1093;51.424;11.764;2023-04-28T08:41:03;11.30;1.40
2174;DHT22;1093;51.424;11.764;2023-04-28T08:43:31;11.20;1.40
2174;DHT22;1093;51.424;11.764;2023-04-28T08:45:59;11.20;1.40
2174;DHT22;1093;51.424;11.764;2023-04-28T08:48:36;11.30;1.40
2174;DHT22;1093;51.424;11.764;2023-04-28T08:51:06;11.30;1.40
2174;DHT22;1093;51.424;11.764;2023-04-28T08:53:36;11.30;1.40
2174;DHT22;1093;51.424;11.764;2023-04-28T08:56:04;11.40;1.40
2174;DHT22;1093;51.424;11.764;2023-04-28T08:58:34;11.50;1.40
2174;DHT22;1093;51.424;11.764;2023-04-28T09:01:01;11.40;1.40
2174;DHT22;1093;51.424;11.764;2023-04-28T09:03:29;11.50;1.40
2174;DHT22;1093;51.424;11.764;2023-04-28T09:05:56;11.50;1.40
2174;DHT22;1093;51.424;11.764;2023-04-28T09:08:24;11.60;1.40
2174;DHT22;1093;51.424;11.764;2023-04-28T09:11:05;11.60;1.40
2174;DHT22;1093;51.424;11.764;2023-04-28T09:13:33;11.60;1.40
2174;DHT22;1093;51.424;11.764;2023-04-28T09:16:00;11.60;1.40
2174;DHT22;1093;51.424;11.764;2023-04-28T09:18:28;11.60;1.40
2174;DHT22;1093;51.424;11.764;2023-04-28T09:21:07;11.60;1.40
2174;DHT22;1093;51.424;11.764;2023-04-28T09:23:45;11.50;1.40
2174;DHT22;1093;51.424;11.764;2023-04-28T09:26:12;11.60;1.40
2174;DHT22;1093;51.424;11.764;2023-04-28T09:28:39;11.60;1.40
2174;DHT22;1093;51.424;11.764;2023-04-28T09:31:21;11.40;1.40
2174;DHT22;1093;51.424;11.764;2023-04-28T09:33:56;11.50;1.40
2174;DHT22;1093;51.424;11.764;2023-04-28T09:36:25;11.50;1.40
2174;DHT22;1093;51.424;11.764;2023-04-28T09:38:56;11.50;1.40
2174;DHT22;1093;51.424;11.764;2023-04-28T09:41:34;11.40;1.40
2174;DHT22;1093;51.424;11.764;2023-04-28T09:44:09;11.40;1.40
2174;DHT22;1093;51.424;11.764;2023-04-28T09:46:36;11.20;1.40
2174;DHT22;1093;51.424;11.764;2023-04-28T09:49:03;11.30;1.40
2174;DHT22;1093;51.424;11.764;2023-04-28T09:51:30;11.30;1.40
2174;DHT22;1093;51.424;11.764;2023-04-28T09:53:59;11.30;1.40
2174;DHT22;1093;51.424;11.764;2023-04-28T09:56:27;11.20;1.40
2174;DHT22;1093;51.424;11.764;2023-04-28T09:58:55;11.30;1.40
2174;DHT22;1093;51.424;11.764;2023-04-28T10:01:23;11.20;1.40
2174;DHT22;1093;51.424;11.764;2023-04-28T10:03:52;11.20;1.40
2174;DHT22;1093;51.424;11.764;2023-04-28T10:06:19;11.30;1.40
2174;DHT22;1093;51.424;11.764;2023-04-28T10:08:47;11.30;1.40
2174;DHT22;1093;51.424;11.764;2023-04-28T10:11:16;11.30;1.40
2174;DHT22;1093;51.424;11.764;2023-04-28T10:13:43;11.20;1.40
2174;DHT22;1093;51.424;11.764;2023-04-28T10:16:10;11.30;1.40
2174;DHT22;1093;51.424;11.764;2023-04-28T10:18:37;11.30;1.40
2174;DHT22;1093;51.424;11.764;2023-04-28T10:21:05;11.30;1.40
2174;DHT22;1093;51.424;11.764;2023-04-28T10:23:59;11.30;1.40
2174;DHT22;1093;51.424;11.764;2023-04-28T10:29:37;11.40;1.40
2174;DHT22;1093;51.424;11.764;2023-04-28T10:32:20;11.40;1.40
2174;DHT22;1093;51.424;11.764;2023-04-28T10:34:48;11.40;1.40
2174;DHT22;1093;51.424;11.764;2023-04-28T10:37:15;11.40;1.40
2174;DHT22;1093;51.424;11.764;2023-04-28T10:42:52;11.30;1.40
2174;DHT22;1093;51.424;11.764;2023-04-28T10:48:19;11.30;1.40
2174;DHT22;1093;51.424;11.764;2023-04-28T10:51:21;11.40;1.40
2174;DHT22;1093;51.424;11.764;2023-04-28T10:54:08;11.50;1.40
2174;DHT22;1093;51.424;11.764;2023-04-28T10:56:35;11.50;1.40
2174;DHT22;1093;51.424;11.764;2023-04-28T10:59:26;11.50;1.40
2174;DHT22;1093;51.424;11.764;2023-04-28T11:01:53;11.60;1.40
2174;DHT22;1093;51.424;11.764;2023-04-28T11:04:20;11.80;1.40
2174;DHT22;1093;51.424;11.764;2023-04-28T11:07:10;11.90;1.40
2174;DHT22;1093;51.424;11.764;2023-04-28T11:09:48;11.90;1.40
2174;DHT22;1093;51.424;11.764;2023-04-28T11:12:16;11.90;1.40
2174;DHT22;1093;51.424;11.764;2023-04-28T11:14:44;11.90;1.40
2174;DHT22;1093;51.424;11.764;2023-04-28T11:17:11;12.00;1.40
2174;DHT22;1093;51.424;11.764;2023-04-28T11:19:42;12.10;1.40
2174;DHT22;1093;51.424;11.764;2023-04-28T11:22:14;12.20;1.40
2174;DHT22;1093;51.424;11.764;2023-04-28T11:24:41;12.20;1.40
2174;DHT22;1093;51.424;11.764;2023-04-28T11:27:07;12.20;1.40
2174;DHT22;1093;51.424;11.764;2023-04-28T11:29:35;12.30;1.40
2174;DHT22;1093;51.424;11.764;2023-04-28T11:32:04;12.40;1.40
2174;DHT22;1093;51.424;11.764;2023-04-28T11:34:32;12.40;1.40
2174;DHT22;1093;51.424;11.764;2023-04-28T11:36:59;12.40;1.40
2174;DHT22;1093;51.424;11.764;2023-04-28T11:39:27;12.40;1.40
2174;DHT22;1093;51.424;11.764;2023-04-28T11:41:54;12.50;1.40
2174;DHT22;1093;51.424;11.764;2023-04-28T11:44:23;12.50;1.40
2174;DHT22;1093;51.424;11.764;2023-04-28T11:46:52;12.60;1.40
2174;DHT22;1093;51.424;11.764;2023-04-28T11:49:22;12.60;1.40
2174;DHT22;1093;51.424;11.764;2023-04-28T11:51:50;12.70;1.40
2174;DHT22;1093;51.424;11.764;2023-04-28T11:54:21;12.70;1.40
2174;DHT22;1093;51.424;11.764;2023-04-28T11:56:49;12.80;1.40
2174;DHT22;1093;51.424;11.764;2023-04-28T11:59:16;12.80;1.40
2174;DHT22;1093;51.424;11.764;2023-04-28T12:01:46;12.90;1.40
2174;DHT22;1093;51.424;11.764;2023-04-28T12:04:15;12.90;1.40
2174;DHT22;1093;51.424;11.764;2023-04-28T12:06:59;13.00;1.40
2174;DHT22;1093;51.424;11.764;2023-04-28T12:09:26;12.90;1.40
2174;DHT22;1093;51.424;11.764;2023-04-28T12:11:54;13.00;1.40
2174;DHT22;1093;51.424;11.764;2023-04-28T12:14:22;13.10;1.40
2174;DHT22;1093;51.424;11.764;2023-04-28T12:16:49;13.10;1.40
2174;DHT22;1093;51.424;11.764;2023-04-28T12:19:16;13.00;1.40
2174;DHT22;1093;51.424;11.764;2023-04-28T12:22:03;13.10;1.40
2174;DHT22;1093;51.424;11.764;2023-04-28T12:24:30;13.10;1.40
2174;DHT22;1093;51.424;11.764;2023-04-28T12:27:17;13.10;1.40
2174;DHT22;1093;51.424;11.764;2023-04-28T12:29:46;13.10;1.40
2174;DHT22;1093;51.424;11.764;2023-04-28T12:32:14;13.10;1.40
2174;DHT22;1093;51.424;11.764;2023-04-28T12:34:43;13.10;1.40
2174;DHT22;1093;51.424;11.764;2023-04-28T12:37:11;13.10;1.40
2174;DHT22;1093;51.424;11.764;2023-04-28T12:39:39;13.10;1.40
2174;DHT22;1093;51.424;11.764;2023-04-28T12:42:06;13.20;1.40
2174;DHT22;1093;51.424;11.764;2023-04-28T12:44:34;13.20;1.40
2174;DHT22;1093;51.424;11.764;2023-04-28T12:47:02;13.20;1.40
2174;DHT22;1093;51.424;11.764;2023-04-28T12:49:29;13.20;1.40
2174;DHT22;1093;51.424;11.764;2023-04-28T12:51:56;13.20;1.40
2174;DHT22;1093;51.424;11.764;2023-04-28T12:54:24;13.20;1.40
2174;DHT22;1093;51.424;11.764;2023-04-28T12:56:51;13.20;1.40
2174;DHT22;1093;51.424;11.764;2023-04-28T12:59:19;13.10;1.40
2174;DHT22;1093;51.424;11.764;2023-04-28T13:01:46;13.20;1.40
2174;DHT22;1093;51.424;11.764;2023-04-28T13:04:13;13.20;1.40
2174;DHT22;1093;51.424;11.764;2023-04-28T13:06:40;13.30;1.40
2174;DHT22;1093;51.424;11.764;2023-04-28T13:09:09;13.30;1.40
2174;DHT22;1093;51.424;11.764;2023-04-28T13:11:37;13.30;1.40
2174;DHT22;1093;51.424;11.764;2023-04-28T13:14:04;13.30;1.40
2174;DHT22;1093;51.424;11.764;2023-04-28T13:16:31;13.40;1.40
2174;DHT22;1093;51.424;11.764;2023-04-28T13:18:59;13.30;1.40
2174;DHT22;1093;51.424;11.764;2023-04-28T13:21:26;13.30;1.40
2174;DHT22;1093;51.424;11.764;2023-04-28T13:23:53;13.30;1.40
2174;DHT22;1093;51.424;11.764;2023-04-28T13:26:20;13.30;1.40
2174;DHT22;1093;51.424;11.764;2023-04-28T13:28:49;13.20;1.40
2174;DHT22;1093;51.424;11.764;2023-04-28T13:31:16;13.30;1.40
2174;DHT22;1093;51.424;11.764;2023-04-28T13:33:43;13.20;1.40
2174;DHT22;1093;51.424;11.764;2023-04-28T13:36:10;13.30;1.40
2174;DHT22;1093;51.424;11.764;2023-04-28T13:38:37;13.30;1.40
2174;DHT22;1093;51.424;11.764;2023-04-28T13:41:04;13.20;1.40
2174;DHT22;1093;51.424;11.764;2023-04-28T13:43:31;13.20;1.40
2174;DHT22;1093;51.424;11.764;2023-04-28T13:45:59;13.20;1.40
2174;DHT22;1093;51.424;11.764;2023-04-28T13:48:25;13.10;1.40
2174;DHT22;1093;51.424;11.764;2023-04-28T13:50:53;13.20;1.40
2174;DHT22;1093;51.424;11.764;2023-04-28T13:53:20;13.20;1.40
2174;DHT22;1093;51.424;11.764;2023-04-28T13:55:48;13.20;1.40
2174;DHT22;1093;51.424;11.764;2023-04-28T13:58:18;13.20;1.40
2174;DHT22;1093;51.424;11.764;2023-04-28T14:00:45;13.10;1.40
2174;DHT22;1093;51.424;11.764;2023-04-28T14:03:13;13.10;1.40
2174;DHT22;1093;51.424;11.764;2023-04-28T14:05:39;13.10;1.40
2174;DHT22;1093;51.424;11.764;2023-04-28T14:08:07;13.00;1.40
2174;DHT22;1093;51.424;11.764;2023-04-28T14:10:34;13.00;1.40
2174;DHT22;1093;51.424;11.764;2023-04-28T14:13:01;13.10;1.40
2174;DHT22;1093;51.424;11.764;2023-04-28T14:15:28;13.10;1.40
2174;DHT22;1093;51.424;11.764;2023-04-28T14:17:55;13.10;1.40
2174;DHT22;1093;51.424;11.764;2023-04-28T14:20:23;13.10;1.40
2174;DHT22;1093;51.424;11.764;2023-04-28T14:22:50;13.20;1.40
2174;DHT22;1093;51.424;11.764;2023-04-28T14:25:17;13.10;1.40
2174;DHT22;1093;51.424;11.764;2023-04-28T14:27:43;13.10;1.40
2174;DHT22;1093;51.424;11.764;2023-04-28T14:30:12;13.10;1.40
2174;DHT22;1093;51.424;11.764;2023-04-28T14:32:39;13.10;1.40
2174;DHT22;1093;51.424;11.764;2023-04-28T14:35:06;13.20;1.40
2174;DHT22;1093;51.424;11.764;2023-04-28T14:37:35;13.20;1.40
2174;DHT22;1093;51.424;11.764;2023-04-28T14:40:04;13.20;1.40
2174;DHT22;1093;51.424;11.764;2023-04-28T14:42:32;13.20;1.40
2174;DHT22;1093;51.424;11.764;2023-04-28T14:45:01;13.30;1.40
2174;DHT22;1093;51.424;11.764;2023-04-28T14:47:28;13.20;1.40
2174;DHT22;1093;51.424;11.764;2023-04-28T14:49:55;13.20;1.40
2174;DHT22;1093;51.424;11.764;2023-04-28T14:52:25;13.20;1.40
2174;DHT22;1093;51.424;11.764;2023-04-28T14:54:56;13.20;1.40
2174;DHT22;1093;51.424;11.764;2023-04-28T14:57:23;13.20;1.40
2174;DHT22;1093;51.424;11.764;2023-04-28T14:59:50;13.30;1.40
2174;DHT22;1093;51.424;11.764;2023-04-28T15:02:17;13.30;1.40
2174;DHT22;1093;51.424;11.764;2023-04-28T15:04:45;13.30;1.40
2174;DHT22;1093;51.424;11.764;2023-04-28T15:07:13;13.30;1.40
2174;DHT22;1093;51.424;11.764;2023-04-28T15:09:40;13.30;1.40
2174;DHT22;1093;51.424;11.764;2023-04-28T15:12:09;13.30;1.40
2174;DHT22;1093;51.424;11.764;2023-04-28T15:14:36;13.40;1.40
2174;DHT22;1093;51.424;11.764;2023-04-28T15:17:02;13.50;1.40
2174;DHT22;1093;51.424;11.764;2023-04-28T15:19:29;13.50;1.40
2174;DHT22;1093;51.424;11.764;2023-04-28T15:21:56;13.50;1.40
2174;DHT22;1093;51.424;11.764;2023-04-28T15:24:23;13.60;1.40
2174;DHT22;1093;51.424;11.764;2023-04-28T15:26:50;13.60;1.40
2174;DHT22;1093;51.424;11.764;2023-04-28T15:29:19;13.60;1.40
2174;DHT22;1093;51.424;11.764;2023-04-28T15:31:47;13.60;1.40
2174;DHT22;1093;51.424;11.764;2023-04-28T15:34:14;13.70;1.40
2174;DHT22;1093;51.424;11.764;2023-04-28T15:36:42;13.70;1.40
2174;DHT22;1093;51.424;11.764;2023-04-28T15:39:09;13.70;1.40
2174;DHT22;1093;51.424;11.764;2023-04-28T15:41:35;13.70;1.40
2174;DHT22;1093;51.424;11.764;2023-04-28T15:44:02;13.80;1.40
2174;DHT22;1093;51.424;11.764;2023-04-28T15:46:31;13.90;1.40
2174;DHT22;1093;51.424;11.764;2023-04-28T15:48:57;13.90;1.40
2174;DHT22;1093;51.424;11.764;2023-04-28T15:51:24;13.90;1.40
2174;DHT22;1093;51.424;11.764;2023-04-28T15:53:51;13.80;1.40
2174;DHT22;1093;51.424;11.764;2023-04-28T15:56:20;13.90;1.40
2174;DHT22;1093;51.424;11.764;2023-04-28T15:58:47;13.90;1.40
2174;DHT22;1093;51.424;11.764;2023-04-28T16:01:14;13.80;1.40
2174;DHT22;1093;51.424;11.764;2023-04-28T16:03:42;13.80;1.40
2174;DHT22;1093;51.424;11.764;2023-04-28T16:06:09;13.80;1.40
2174;DHT22;1093;51.424;11.764;2023-04-28T16:08:36;13.80;1.40
2174;DHT22;1093;51.424;11.764;2023-04-28T16:11:03;13.90;1.40
2174;DHT22;1093;51.424;11.764;2023-04-28T16:13:31;13.80;1.40
2174;DHT22;1093;51.424;11.764;2023-04-28T16:16:04;13.80;1.40
2174;DHT22;1093;51.424;11.764;2023-04-28T16:18:32;13.80;1.40
2174;DHT22;1093;51.424;11.764;2023-04-28T16:21:00;13.80;1.40
2174;DHT22;1093;51.424;11.764;2023-04-28T16:23:27;13.90;1.40